Huntsville International Carl T Jones Field
KHSV : now visible

Airfield :











YOU CAN JOIN US ON...

 
LOGIN :

Register | Disclaimer

   EN    FR    IT 

 









Legend :    VFR   Marginal VFR   IFR   Intensive IFR   Very Intensive IFR
Visi :
Ceiling :
>= 8 km
>= 3000ft
5 to 8 km
1000 to 3000 ft
1500m to 5 km
500 to 1000 ft
800 to 1500m
200 to 500 ft
< 800m
< 200 ft
Symbols :   Thunderstorms  Fog  Heavy snow  Heavy precipitations  Wind > 20 kt






- Airport Elevation : 629 ft
- IATA code : HSV


KHSV - Huntsville International Carl T Jones Field

CURRENT METAR :
  • 281718Z 10004KT 2SM RA BR BKN010 OVC021 22/22 A3000 RMK AO2 SFC VIS 3 P0003 T02170217 $

EXPIRED METARs :
  • 281653Z 10003KT 5SM RA BR FEW006 BKN012 OVC019 22/21 A3001 RMK AO2 RAE18B30 SLP156 P0001 T02170211 $
  • 281643Z 00000KT 10SM -RA FEW006 OVC016 22/21 A3002 RMK AO2 RAE18B30 P0001 T02170211 $
  • 281628Z 10003KT 10SM OVC014 22/22 A3002 RMK AO2 RAE18 P0001 T02170217 $
  • 281603Z 11004KT 10SM -RA SCT014 OVC021 22/22 A3002 RMK AO2 P0001 T02170217 $
  • 281521Z 10004KT 3SM RA BR SCT006 BKN014 OVC028 21/21 A3003 RMK AO2 P0010 T02110206 $
  • 281503Z 08004KT 1 1/2SM +RA BR BKN006 BKN020 OVC028 21/21 A3003 RMK AO2 SFC VIS 2 1/2 P0008 T02060206 $
  • 281453Z 06005KT 1SM R18R/3500VP6000FT +RA BR BKN017 BKN023 OVC028 21/21 A3003 RMK AO2 TWR VIS 1 1/2 SLP163 P0177 60237 T02060206 51007 $

TAF KHSV
Valid from the 28 at 18:00 until the 29 at 18:00 UTC


281720Z 2818/2918 11005KT P6SM -SHRA SCT006 OVC015
FM282000 12006KT 6SM -SHRA BR SCT009 OVC015
FM290200 11008G16KT 5SM SHRA BR BKN009 OVC020
FM290500 11012G22KT 5SM SHRA BR OVC009
FM291200 22015G25KT P6SM -SHRA BKN008 OVC015
PROB30 2912/2918 5SM -SHRA BR OVC004
KZME FIR / North America



MET'MAP, your aeronautical weather chart ! - Copyright ORBIFLY December 2007 - Disclaimer

ORBIFLY MET'MAP TEAM :

Programming & Development : Alexandra Zaïnal
Concept & original design : Baudouin d'Aumeries
Assistance for programming : Marc-Olivier Méhu
Technical & hardware support : Manuel Goepfert

Contact : metmap@orbifly.com




SOURCES & CREDITS :

   NOAA       Earth
Advisory